Time,TemperatureF,DewpointF,PressureIn,WindDirection,WindDirectionDegrees,WindSpeedMPH,WindSpeedGustMPH,Humidity,HourlyPrecipIn,Conditions,Clouds,dailyrainin,SolarRadiationWatts/m^2,SoftwareType,DateUTC
2013-09-23 00:03:00,49.7,46.6,30.16,WNW,295,0.0,0.0,89,0.00,SCT,,0.00,0.0,WeatherDisplay:10.37,2013-09-22 22:03:00,
2013-09-23 00:08:00,49.7,46.6,30.16,WNW,295,0.0,0.0,89,0.00,SCT,,0.00,0.0,WeatherDisplay:10.37,2013-09-22 22:08:00,
2013-09-23 00:13:00,49.6,46.5,30.16,WNW,295,0.0,0.0,89,0.00,SCT,,0.00,0.0,WeatherDisplay:10.37,2013-09-22 22:13:00,
2013-09-23 00:18:00,49.6,46.5,30.16,WNW,295,0.0,0.0,89,0.00,SCT,,0.00,0.0,WeatherDisplay:10.37,2013-09-22 22:18:00,
2013-09-23 00:23:00,49.5,46.4,30.16,WNW,295,0.3,1.2,89,0.00,SCT,,0.00,0.0,WeatherDisplay:10.37,2013-09-22 22:23:00,
2013-09-23 00:28:00,49.5,46.7,30.15,WNW,295,0.0,1.2,90,0.00,SCT,,0.00,0.0,WeatherDisplay:10.37,2013-09-22 22:28:00,
2013-09-23 00:33:00,49.5,46.7,30.16,WNW,295,0.0,0.0,90,0.00,SCT,,0.00,0.0,WeatherDisplay:10.37,2013-09-22 22:33:00,
2013-09-23 00:38:00,49.5,46.7,30.16,WNW,295,0.0,0.0,90,0.00,SCT,,0.00,0.0,WeatherDisplay:10.37,2013-09-22 22:38:00,
2013-09-23 00:43:00,49.5,46.7,30.16,WNW,295,0.0,0.0,90,0.00,SCT,,0.00,0.0,WeatherDisplay:10.37,2013-09-22 22:43:00,
2013-09-23 00:48:00,49.5,46.7,30.16,WNW,295,0.0,0.0,90,0.00,SCT,,0.00,0.0,WeatherDisplay:10.37,2013-09-22 22:48:00,
2013-09-23 00:53:00,49.5,46.7,30.15,WNW,295,0.1,1.0,90,0.00,SCT,,0.00,0.0,WeatherDisplay:10.37,2013-09-22 22:53:00,
2013-09-23 00:58:00,49.6,46.8,30.15,WNW,295,0.0,0.0,90,0.00,SCT,,0.00,0.0,WeatherDisplay:10.37,2013-09-22 22:58:00,
2013-09-23 01:03:00,49.6,46.8,30.15,WNW,295,0.0,0.0,90,0.00,SCT,,0.00,0.0,WeatherDisplay:10.37,2013-09-22 23:03:00,
2013-09-23 01:08:00,49.7,46.9,30.15,WNW,295,0.0,0.0,90,0.00,SCT,,0.00,0.0,WeatherDisplay:10.37,2013-09-22 23:08:00,
2013-09-23 01:13:00,49.7,46.9,30.15,WNW,295,0.0,1.2,90,0.00,SCT,,0.00,0.0,WeatherDisplay:10.37,2013-09-22 23:13:00,
2013-09-23 01:18:00,49.8,47.3,30.14,WNW,295,0.0,1.2,91,0.00,SCT,,0.00,0.0,WeatherDisplay:10.37,2013-09-22 23:18:00,
2013-09-23 01:23:00,49.8,47.3,30.14,WNW,295,0.0,1.2,91,0.00,SCT,,0.00,0.0,WeatherDisplay:10.37,2013-09-22 23:23:00,
2013-09-23 01:28:00,49.8,47.0,30.14,WNW,295,0.0,0.0,90,0.00,SCT,,0.00,0.0,WeatherDisplay:10.37,2013-09-22 23:28:00,
2013-09-23 01:33:00,49.9,47.1,30.14,WNW,295,0.0,0.0,90,0.00,SCT,,0.00,0.0,WeatherDisplay:10.37,2013-09-22 23:33:00,
2013-09-23 01:38:00,50.0,47.2,30.15,WNW,295,0.0,0.0,90,0.00,SCT,,0.00,0.0,WeatherDisplay:10.37,2013-09-22 23:38:00,
2013-09-23 01:43:00,50.0,47.2,30.15,WNW,295,0.0,0.0,90,0.00,SCT,,0.00,0.0,WeatherDisplay:10.37,2013-09-22 23:43:00,
2013-09-23 01:48:00,50.1,47.3,30.14,WNW,295,0.0,1.2,90,0.00,SCT,,0.00,0.0,WeatherDisplay:10.37,2013-09-22 23:48:00,
2013-09-23 01:53:00,50.2,47.4,30.14,WNW,295,0.0,1.2,90,0.00,SCT,,0.00,0.0,WeatherDisplay:10.37,2013-09-22 23:53:00,
2013-09-23 01:58:00,50.3,47.5,30.14,WNW,295,0.0,0.0,90,0.00,SCT,,0.00,0.0,WeatherDisplay:10.37,2013-09-22 23:58:00,
2013-09-23 02:03:00,50.3,47.5,30.14,WNW,295,0.1,1.2,90,0.00,SCT,,0.00,0.0,WeatherDisplay:10.37,2013-09-23 00:03:00,
2013-09-23 02:08:00,50.3,47.2,30.14,WNW,295,0.0,1.2,89,0.00,SCT,,0.00,0.0,WeatherDisplay:10.37,2013-09-23 00:08:00,
2013-09-23 02:13:00,50.3,47.2,30.13,WNW,295,0.1,1.2,89,0.00,SCT,,0.00,0.0,WeatherDisplay:10.37,2013-09-23 00:13:00,
2013-09-23 02:18:00,50.3,47.2,30.13,WNW,295,0.0,0.0,89,0.00,SCT,,0.00,0.0,WeatherDisplay:10.37,2013-09-23 00:18:00,
2013-09-23 02:23:00,50.3,47.2,30.13,WNW,295,0.0,1.2,89,0.00,SCT,,0.00,0.0,WeatherDisplay:10.37,2013-09-23 00:23:00,
2013-09-23 02:28:00,50.3,47.2,30.13,WNW,295,0.0,0.0,89,0.00,SCT,,0.00,0.0,WeatherDisplay:10.37,2013-09-23 00:28:00,
2013-09-23 02:33:00,50.3,47.2,30.13,WNW,295,0.0,0.0,89,0.00,SCT,,0.00,0.0,WeatherDisplay:10.37,2013-09-23 00:33:00,
2013-09-23 02:38:00,50.3,47.2,30.12,WNW,295,0.0,0.0,89,0.00,SCT,,0.00,0.0,WeatherDisplay:10.37,2013-09-23 00:38:00,
2013-09-23 02:43:00,50.3,47.2,30.12,WNW,295,0.0,0.0,89,0.00,SCT,,0.00,0.0,WeatherDisplay:10.37,2013-09-23 00:43:00,
2013-09-23 02:48:00,50.3,47.2,30.12,WNW,295,0.0,0.0,89,0.00,SCT,,0.00,0.0,WeatherDisplay:10.37,2013-09-23 00:48:00,
2013-09-23 02:53:00,50.4,47.3,30.12,WNW,295,0.0,0.0,89,0.00,SCT,,0.00,0.0,WeatherDisplay:10.37,2013-09-23 00:53:00,
2013-09-23 02:58:00,50.5,47.4,30.12,WNW,295,0.0,1.2,89,0.00,SCT,,0.00,0.0,WeatherDisplay:10.37,2013-09-23 00:58:00,
2013-09-23 03:03:00,50.5,47.4,30.12,WNW,295,0.1,1.0,89,0.00,SCT,,0.00,0.0,WeatherDisplay:10.37,2013-09-23 01:03:00,
2013-09-23 03:08:00,50.6,47.5,30.12,WNW,295,0.0,0.0,89,0.00,SCT,,0.00,0.0,WeatherDisplay:10.37,2013-09-23 01:08:00,
2013-09-23 03:13:00,50.6,47.5,30.11,WNW,295,0.0,0.0,89,0.00,SCT,,0.00,0.0,WeatherDisplay:10.37,2013-09-23 01:13:00,
2013-09-23 03:18:00,50.6,47.5,30.11,WNW,295,0.0,0.0,89,0.00,SCT,,0.00,0.0,WeatherDisplay:10.37,2013-09-23 01:18:00,
2013-09-23 03:23:00,50.6,47.5,30.11,WNW,295,0.0,0.0,89,0.00,SCT,,0.00,0.0,WeatherDisplay:10.37,2013-09-23 01:23:00,
2013-09-23 03:28:00,50.6,47.5,30.11,WNW,295,0.0,0.0,89,0.00,SCT,,0.00,0.0,WeatherDisplay:10.37,2013-09-23 01:28:00,
2013-09-23 03:33:00,50.6,47.5,30.10,WNW,295,0.0,0.0,89,0.00,SCT,,0.00,0.0,WeatherDisplay:10.37,2013-09-23 01:33:00,
2013-09-23 03:38:00,50.6,47.5,30.10,WNW,295,0.0,0.0,89,0.00,SCT,,0.00,0.0,WeatherDisplay:10.37,2013-09-23 01:38:00,
2013-09-23 03:43:00,50.6,47.5,30.10,WNW,295,0.0,0.0,89,0.00,SCT,,0.00,0.0,WeatherDisplay:10.37,2013-09-23 01:43:00,
2013-09-23 03:48:00,50.7,47.6,30.10,WNW,295,0.3,1.2,89,0.00,SCT,,0.00,0.0,WeatherDisplay:10.37,2013-09-23 01:48:00,
2013-09-23 03:53:00,50.7,47.6,30.10,WNW,295,0.0,1.2,89,0.00,SCT,,0.00,0.0,WeatherDisplay:10.37,2013-09-23 01:53:00,
2013-09-23 03:58:00,50.8,47.7,30.09,WNW,295,0.0,1.2,89,0.00,SCT,,0.00,0.0,WeatherDisplay:10.37,2013-09-23 01:58:00,
2013-09-23 04:03:00,50.8,47.7,30.09,WNW,295,0.0,1.2,89,0.00,SCT,,0.00,0.0,WeatherDisplay:10.37,2013-09-23 02:03:00,
2013-09-23 04:08:00,50.8,47.7,30.09,WNW,295,0.0,1.2,89,0.00,SCT,,0.00,0.0,WeatherDisplay:10.37,2013-09-23 02:08:00,
2013-09-23 04:13:00,50.8,47.7,30.09,WNW,295,0.0,0.0,89,0.00,SCT,,0.00,0.0,WeatherDisplay:10.37,2013-09-23 02:13:00,
2013-09-23 04:18:00,50.9,47.8,30.08,WNW,295,0.0,0.0,89,0.00,SCT,,0.00,0.0,WeatherDisplay:10.37,2013-09-23 02:18:00,
2013-09-23 04:23:00,50.9,47.8,30.08,WNW,295,0.0,0.0,89,0.00,SCT,,0.00,0.0,WeatherDisplay:10.37,2013-09-23 02:23:00,
2013-09-23 04:28:00,50.9,47.8,30.08,WNW,295,0.7,3.5,89,0.00,SCT,,0.00,0.0,WeatherDisplay:10.37,2013-09-23 02:28:00,
2013-09-23 04:33:00,50.9,47.8,30.08,NNW,328,0.9,4.6,89,0.00,SCT,,0.00,0.0,WeatherDisplay:10.37,2013-09-23 02:33:00,
2013-09-23 04:38:00,51.2,48.4,30.08,NW,315,3.0,11.5,90,0.00,SCT,,0.00,0.0,WeatherDisplay:10.37,2013-09-23 02:38:00,
2013-09-23 04:43:00,51.8,49.0,30.08,WNW,296,3.4,10.4,90,0.00,SCT,,0.00,0.0,WeatherDisplay:10.37,2013-09-23 02:43:00,
2013-09-23 04:48:00,52.4,49.6,30.08,WNW,298,2.8,8.1,90,0.00,SCT,,0.00,0.0,WeatherDisplay:10.37,2013-09-23 02:48:00,
2013-09-23 04:53:00,52.9,49.7,30.08,NNW,339,2.4,10.4,89,0.00,SCT,,0.00,0.0,WeatherDisplay:10.37,2013-09-23 02:53:00,
2013-09-23 04:58:00,53.3,49.8,30.08,NW,319,3.0,6.0,88,0.00,SCT,,0.00,0.0,WeatherDisplay:10.37,2013-09-23 02:58:00,
2013-09-23 05:03:00,53.4,49.6,30.08,NNW,341,1.8,5.8,87,0.00,SCT,,0.00,0.0,WeatherDisplay:10.37,2013-09-23 03:03:00,
2013-09-23 05:08:00,53.5,49.4,30.08,WNW,300,2.7,5.8,86,0.00,SCT,,0.00,0.0,WeatherDisplay:10.37,2013-09-23 03:08:00,
2013-09-23 05:13:00,53.5,49.4,30.08,West,263,4.5,12.7,86,0.00,SCT,,0.00,0.0,WeatherDisplay:10.37,2013-09-23 03:13:00,
2013-09-23 05:18:00,53.5,49.4,30.07,WNW,291,2.8,8.1,86,0.00,SCT,,0.00,0.0,WeatherDisplay:10.37,2013-09-23 03:18:00,
2013-09-23 05:23:00,53.6,49.5,30.08,WNW,294,1.7,8.1,86,0.00,SCT,,0.00,0.0,WeatherDisplay:10.37,2013-09-23 03:23:00,
2013-09-23 05:28:00,53.6,49.5,30.07,WNW,288,2.3,9.2,86,0.00,SCT,,0.00,0.0,WeatherDisplay:10.37,2013-09-23 03:28:00,
2013-09-23 05:33:00,53.8,49.7,30.07,NNW,341,3.9,8.1,86,0.00,SCT,,0.00,0.0,WeatherDisplay:10.37,2013-09-23 03:33:00,
2013-09-23 05:38:00,53.9,49.8,30.07,WNW,293,1.8,9.2,86,0.00,SCT,,0.00,0.0,WeatherDisplay:10.37,2013-09-23 03:38:00,
2013-09-23 05:43:00,54.1,50.0,30.07,North,355,4.8,8.0,86,0.00,SCT,,0.00,0.0,WeatherDisplay:10.37,2013-09-23 03:43:00,
2013-09-23 05:48:00,54.2,49.8,30.07,NNW,335,0.5,8.1,85,0.00,SCT,,0.00,0.0,WeatherDisplay:10.37,2013-09-23 03:48:00,
2013-09-23 05:53:00,54.3,49.9,30.06,NW,311,2.7,8.0,85,0.00,SCT,,0.00,0.0,WeatherDisplay:10.37,2013-09-23 03:53:00,
2013-09-23 05:58:00,54.4,50.0,30.07,WNW,292,2.4,6.9,85,0.00,SCT,,0.00,0.0,WeatherDisplay:10.37,2013-09-23 03:58:00,
2013-09-23 06:01:00,54.4,50.0,30.07,WNW,296,3.0,8.1,85,0.00,SCT,,0.00,0.0,WeatherDisplay:10.37,2013-09-23 04:01:00,
2013-09-23 06:02:00,54.4,50.0,30.07,WNW,287,2.8,8.1,85,0.00,SCT,,0.00,0.0,WeatherDisplay:10.37,2013-09-23 04:02:00,
2013-09-23 06:03:00,54.4,50.0,30.07,WSW,250,3.6,7.0,85,0.00,SCT,,0.00,0.0,WeatherDisplay:10.37,2013-09-23 04:03:00,
2013-09-23 06:06:00,54.5,50.1,30.07,NNW,338,1.7,6.9,85,0.00,SCT,,0.00,0.0,WeatherDisplay:10.37,2013-09-23 04:06:00,
2013-09-23 06:07:00,54.5,50.1,30.07,WNW,302,1.0,3.5,85,0.00,SCT,,0.00,0.0,WeatherDisplay:10.37,2013-09-23 04:07:00,
2013-09-23 06:12:00,54.5,49.8,30.07,North,355,0.6,4.6,84,0.00,SCT,,0.00,0.0,WeatherDisplay:10.37,2013-09-23 04:12:00,
2013-09-23 06:17:00,54.6,49.9,30.07,West,281,0.7,5.8,84,0.00,SCT,,0.00,0.0,WeatherDisplay:10.37,2013-09-23 04:17:00,
2013-09-23 06:22:00,54.6,49.9,30.07,North,350,0.6,4.0,84,0.00,SCT,,0.00,0.0,WeatherDisplay:10.37,2013-09-23 04:22:00,
2013-09-23 06:27:00,54.6,49.9,30.07,NW,304,1.2,4.6,84,0.00,SCT,,0.00,0.0,WeatherDisplay:10.37,2013-09-23 04:27:00,
2013-09-23 06:32:00,54.6,49.9,30.07,NW,305,0.5,3.5,84,0.00,SCT,,0.00,0.0,WeatherDisplay:10.37,2013-09-23 04:32:00,
2013-09-23 06:37:00,54.5,49.8,30.07,NW,321,0.6,3.5,84,0.00,SCT,,0.00,7.0,WeatherDisplay:10.37,2013-09-23 04:37:00,
2013-09-23 06:42:00,54.5,49.8,30.06,WNW,299,1.4,4.0,84,0.00,SCT,,0.00,14.0,WeatherDisplay:10.37,2013-09-23 04:42:00,
2013-09-23 06:47:00,54.4,49.7,30.06,NNW,331,2.2,6.0,84,0.00,SCT,,0.00,18.0,WeatherDisplay:10.37,2013-09-23 04:47:00,
2013-09-23 06:52:00,54.3,49.6,30.06,NW,320,2.4,7.0,84,0.00,SCT,,0.00,25.0,WeatherDisplay:10.37,2013-09-23 04:52:00,
2013-09-23 06:57:00,54.5,49.8,30.06,NW,322,0.1,8.1,84,0.00,SCT,,0.00,26.0,WeatherDisplay:10.37,2013-09-23 04:57:00,
2013-09-23 07:02:00,54.6,49.9,30.06,NW,321,0.5,2.3,84,0.00,SCT,,0.00,30.0,WeatherDisplay:10.37,2013-09-23 05:02:00,
2013-09-23 07:07:00,54.7,50.0,30.06,WNW,294,0.3,5.8,84,0.00,SCT,,0.00,25.0,WeatherDisplay:10.37,2013-09-23 05:07:00,
2013-09-23 07:12:00,54.8,50.1,30.06,NW,315,2.9,6.9,84,0.00,SCT,,0.00,28.0,WeatherDisplay:10.37,2013-09-23 05:12:00,
2013-09-23 07:17:00,54.9,50.2,30.06,NW,304,4.1,6.0,84,0.00,SCT,,0.00,32.0,WeatherDisplay:10.37,2013-09-23 05:17:00,
2013-09-23 07:22:00,55.1,50.0,30.05,WNW,289,2.7,7.0,83,0.00,SCT,,0.00,33.0,WeatherDisplay:10.37,2013-09-23 05:22:00,
2013-09-23 07:27:00,55.2,50.1,30.05,West,269,3.2,9.2,83,0.00,SCT,,0.00,39.0,WeatherDisplay:10.37,2013-09-23 05:27:00,
2013-09-23 07:32:00,55.2,50.1,30.06,NW,316,2.2,6.9,83,0.00,BKN,,0.00,51.0,WeatherDisplay:10.37,2013-09-23 05:32:00,
2013-09-23 07:37:00,55.4,50.3,30.05,NW,311,3.5,7.0,83,0.00,BKN,,0.00,63.0,WeatherDisplay:10.37,2013-09-23 05:37:00,
2013-09-23 07:42:00,55.6,50.5,30.05,WNW,287,1.6,6.0,83,0.00,SCT,,0.00,83.0,WeatherDisplay:10.37,2013-09-23 05:42:00,
2013-09-23 07:47:00,55.8,50.7,30.05,West,276,3.3,9.2,83,0.00,SCT,,0.00,86.0,WeatherDisplay:10.37,2013-09-23 05:47:00,
2013-09-23 07:52:00,56.0,50.9,30.05,NW,323,3.3,11.5,83,0.00,SCT,,0.00,93.0,WeatherDisplay:10.37,2013-09-23 05:52:00,
2013-09-23 07:57:00,56.2,50.8,30.05,NW,309,3.3,11.5,82,0.00,SCT,,0.00,93.0,WeatherDisplay:10.37,2013-09-23 05:57:00,
2013-09-23 08:02:00,56.5,51.1,30.05,West,279,5.1,11.5,82,0.00,SCT,,0.00,137.0,WeatherDisplay:10.37,2013-09-23 06:02:00,
2013-09-23 08:07:00,56.8,51.4,30.05,North,355,0.6,4.6,82,0.00,SCT,,0.00,176.0,WeatherDisplay:10.37,2013-09-23 06:07:00,
2013-09-23 08:12:00,57.2,51.4,30.05,NNW,337,5.1,8.1,81,0.00,CLR,,0.00,253.0,WeatherDisplay:10.37,2013-09-23 06:12:00,
2013-09-23 08:17:00,57.8,51.7,30.05,NW,310,6.8,12.7,80,0.00,CLR,,0.00,200.0,WeatherDisplay:10.37,2013-09-23 06:17:00,
2013-09-23 08:22:00,58.2,51.7,30.05,North,355,3.9,10.4,79,0.00,CLR,,0.00,132.0,WeatherDisplay:10.37,2013-09-23 06:22:00,
2013-09-23 08:27:00,58.3,51.8,30.05,NW,304,7.2,16.1,79,0.00,SCT,,0.00,127.0,WeatherDisplay:10.37,2013-09-23 06:27:00,
2013-09-23 08:32:00,58.3,51.5,30.05,NW,317,3.7,9.2,78,0.00,SCT,,0.00,130.0,WeatherDisplay:10.37,2013-09-23 06:32:00,
2013-09-23 08:37:00,58.3,51.8,30.05,NNW,346,4.6,8.1,79,0.00,SCT,,0.00,127.0,WeatherDisplay:10.37,2013-09-23 06:37:00,
2013-09-23 08:42:00,58.2,51.4,30.05,NNW,327,5.8,11.5,78,0.00,SCT,,0.00,134.0,WeatherDisplay:10.37,2013-09-23 06:42:00,
2013-09-23 08:47:00,58.1,51.6,30.05,NW,321,4.0,10.4,79,0.00,SCT,,0.00,158.0,WeatherDisplay:10.37,2013-09-23 06:47:00,
2013-09-23 08:52:00,58.2,51.7,30.05,NW,309,3.0,10.4,79,0.00,SCT,,0.00,176.0,WeatherDisplay:10.37,2013-09-23 06:52:00,
2013-09-23 08:57:00,58.3,51.8,30.05,WSW,242,6.0,9.2,79,0.00,SCT,,0.00,176.0,WeatherDisplay:10.37,2013-09-23 06:57:00,
2013-09-23 09:02:00,58.4,51.6,30.05,NW,309,7.3,11.5,78,0.00,SCT,,0.00,181.0,WeatherDisplay:10.37,2013-09-23 07:02:00,
2013-09-23 09:07:00,58.5,51.7,30.05,WNW,294,7.1,16.1,78,0.00,SCT,,0.00,183.0,WeatherDisplay:10.37,2013-09-23 07:07:00,
2013-09-23 09:12:00,58.6,51.8,30.05,NW,311,4.2,10.4,78,0.00,SCT,,0.00,155.0,WeatherDisplay:10.37,2013-09-23 07:12:00,
2013-09-23 09:17:00,58.6,51.8,30.05,WNW,303,3.0,9.2,78,0.00,SCT,,0.00,121.0,WeatherDisplay:10.37,2013-09-23 07:17:00,
2013-09-23 09:22:00,58.6,51.8,30.05,NNW,333,5.3,16.1,78,0.00,BKN,,0.00,316.0,WeatherDisplay:10.37,2013-09-23 07:22:00,
2013-09-23 09:27:00,59.0,52.1,30.05,NNW,339,5.2,12.7,78,0.00,SCT,,0.00,378.0,WeatherDisplay:10.37,2013-09-23 07:27:00,
2013-09-23 09:32:00,59.6,52.7,30.05,North,11,5.1,15.0,78,0.00,CLR,,0.00,401.0,WeatherDisplay:10.37,2013-09-23 07:32:00,
2013-09-23 09:37:00,60.2,52.6,30.05,NNE,15,2.2,11.5,76,0.00,CLR,,0.00,434.0,WeatherDisplay:10.37,2013-09-23 07:37:00,
2013-09-23 09:42:00,60.7,52.7,30.05,NW,321,6.5,12.0,75,0.00,CLR,,0.00,415.0,WeatherDisplay:10.37,2013-09-23 07:42:00,
2013-09-23 09:47:00,61.0,52.7,30.05,NNW,333,7.0,16.0,74,0.00,CLR,,0.00,584.0,WeatherDisplay:10.37,2013-09-23 07:47:00,
2013-09-23 09:52:00,61.2,52.5,30.05,NW,318,6.3,16.1,73,0.00,CLR,,0.00,197.0,WeatherDisplay:10.37,2013-09-23 07:52:00,
2013-09-23 09:57:00,61.1,52.7,30.04,WNW,288,4.6,12.0,74,0.00,FEW,,0.00,188.0,WeatherDisplay:10.37,2013-09-23 07:57:00,
2013-09-23 10:02:00,60.8,52.5,30.04,NW,314,4.3,11.5,74,0.00,BKN,,0.00,137.0,WeatherDisplay:10.37,2013-09-23 08:02:00,
2013-09-23 10:07:00,60.5,52.2,30.04,NW,315,7.2,16.1,74,0.00,BKN,,0.00,139.0,WeatherDisplay:10.37,2013-09-23 08:07:00,
2013-09-23 10:12:00,60.3,52.3,30.04,NNW,330,5.4,12.0,75,0.00,BKN,,0.00,206.0,WeatherDisplay:10.37,2013-09-23 08:12:00,
2013-09-23 10:17:00,60.1,52.5,30.04,WNW,300,5.1,11.5,76,0.00,BKN,,0.00,132.0,WeatherDisplay:10.37,2013-09-23 08:17:00,
2013-09-23 10:22:00,60.2,52.6,30.04,West,273,4.8,17.3,76,0.00,BKN,,0.00,111.0,WeatherDisplay:10.37,2013-09-23 08:22:00,
2013-09-23 10:27:00,60.1,52.1,30.04,WSW,244,5.6,12.7,75,0.00,BKN,,0.00,90.0,WeatherDisplay:10.37,2013-09-23 08:27:00,
2013-09-23 10:32:00,60.0,52.4,30.03,North,355,4.3,11.0,76,0.00,BKN,,0.00,105.0,WeatherDisplay:10.37,2013-09-23 08:32:00,
2013-09-23 10:37:00,60.0,52.4,30.03,NW,315,5.2,13.0,76,0.00,BKN,,0.00,197.0,WeatherDisplay:10.37,2013-09-23 08:37:00,
2013-09-23 10:42:00,60.0,52.8,30.03,NNW,328,9.6,18.4,77,0.00,BKN,,0.00,216.0,WeatherDisplay:10.37,2013-09-23 08:42:00,
2013-09-23 10:47:00,60.3,52.7,30.03,NNW,340,6.1,19.6,76,0.00,BKN,,0.00,251.0,WeatherDisplay:10.37,2013-09-23 08:47:00,
2013-09-23 10:52:00,60.6,53.0,30.03,WNW,299,9.6,19.6,76,0.00,SCT,,0.00,221.0,WeatherDisplay:10.37,2013-09-23 08:52:00,
2013-09-23 10:57:00,60.8,52.8,30.03,NNW,332,11.1,16.1,75,0.00,SCT,,0.00,237.0,WeatherDisplay:10.37,2013-09-23 08:57:00,
2013-09-23 11:02:00,60.9,52.6,30.03,WNW,283,8.9,19.0,74,0.00,BKN,,0.00,213.0,WeatherDisplay:10.37,2013-09-23 09:02:00,
2013-09-23 11:07:00,61.0,52.7,30.02,North,350,10.9,19.6,74,0.00,BKN,,0.00,257.0,WeatherDisplay:10.37,2013-09-23 09:07:00,
2013-09-23 11:12:00,61.1,52.7,30.03,NW,304,8.1,19.6,74,0.00,SCT,,0.00,348.0,WeatherDisplay:10.37,2013-09-23 09:12:00,
2013-09-23 11:17:00,61.3,52.9,30.03,North,9,8.1,15.0,74,0.00,SCT,,0.00,311.0,WeatherDisplay:10.37,2013-09-23 09:17:00,
2013-09-23 11:22:00,61.4,53.0,30.03,NW,306,10.0,16.1,74,0.00,SCT,,0.00,269.0,WeatherDisplay:10.37,2013-09-23 09:22:00,
2013-09-23 11:27:00,61.5,53.1,30.02,North,351,6.3,17.3,74,0.00,SCT,,0.00,241.0,WeatherDisplay:10.37,2013-09-23 09:27:00,
2013-09-23 11:32:00,61.7,53.3,30.02,WSW,242,7.6,17.3,74,0.00,SCT,,0.00,244.0,WeatherDisplay:10.37,2013-09-23 09:32:00,
2013-09-23 11:37:00,61.7,53.3,30.02,NW,317,9.4,17.3,74,0.00,BKN,,0.00,295.0,WeatherDisplay:10.37,2013-09-23 09:37:00,
2013-09-23 11:42:00,61.8,53.4,30.02,NNW,327,9.1,23.0,74,0.00,BKN,,0.00,264.0,WeatherDisplay:10.37,2013-09-23 09:42:00,
2013-09-23 11:47:00,61.9,53.5,30.02,NNW,343,9.9,16.1,74,0.00,SCT,,0.00,299.0,WeatherDisplay:10.37,2013-09-23 09:47:00,
2013-09-23 11:52:00,62.0,53.6,30.01,NNW,331,7.9,15.0,74,0.00,SCT,,0.00,338.0,WeatherDisplay:10.37,2013-09-23 09:52:00,
2013-09-23 11:57:00,62.2,53.8,30.01,WNW,290,8.6,18.4,74,0.00,SCT,,0.00,448.0,WeatherDisplay:10.37,2013-09-23 09:57:00,
2013-09-23 12:02:00,62.4,53.6,30.01,West,275,9.8,20.7,73,0.00,SCT,,0.00,429.0,WeatherDisplay:10.37,2013-09-23 10:02:00,
2013-09-23 12:07:00,62.5,53.7,30.01,West,278,7.0,16.1,73,0.00,SCT,,0.00,322.0,WeatherDisplay:10.37,2013-09-23 10:07:00,
2013-09-23 12:12:00,62.4,53.6,30.01,West,277,9.8,19.6,73,0.00,SCT,,0.00,494.0,WeatherDisplay:10.37,2013-09-23 10:12:00,
2013-09-23 12:17:00,62.5,54.1,30.01,WNW,302,5.1,12.7,74,0.00,SCT,,0.00,413.0,WeatherDisplay:10.37,2013-09-23 10:17:00,
2013-09-23 12:22:00,62.6,54.2,30.02,NW,315,12.1,20.0,74,0.00,FEW,,0.00,461.0,WeatherDisplay:10.37,2013-09-23 10:22:00,
2013-09-23 12:27:00,62.8,54.0,30.02,West,273,8.7,22.0,73,0.00,FEW,,0.00,294.0,WeatherDisplay:10.37,2013-09-23 10:27:00,
2013-09-23 12:32:00,62.8,54.0,30.01,NW,311,4.5,15.0,73,0.00,SCT,,0.00,327.0,WeatherDisplay:10.37,2013-09-23 10:32:00,
2013-09-23 12:37:00,63.1,54.3,30.01,WNW,294,6.7,16.1,73,0.00,SCT,,0.00,754.0,WeatherDisplay:10.37,2013-09-23 10:37:00,
2013-09-23 12:42:00,63.7,54.9,30.01,NW,314,6.4,11.5,73,0.00,CLR,,0.00,742.0,WeatherDisplay:10.37,2013-09-23 10:42:00,
2013-09-23 12:47:00,64.2,55.0,30.01,NW,323,9.7,16.1,72,0.00,CLR,,0.00,160.0,WeatherDisplay:10.37,2013-09-23 10:47:00,
2013-09-23 12:52:00,64.5,54.9,30.01,West,259,5.6,12.0,71,0.00,CLR,,0.00,786.0,WeatherDisplay:10.37,2013-09-23 10:52:00,
2013-09-23 12:57:00,64.8,55.2,30.01,NNW,329,6.0,13.0,71,0.00,CLR,,0.00,258.0,WeatherDisplay:10.37,2013-09-23 10:57:00,
2013-09-23 13:02:00,64.8,54.8,30.01,West,266,8.3,15.0,70,0.00,SCT,,0.00,165.0,WeatherDisplay:10.37,2013-09-23 11:02:00,
2013-09-23 13:07:00,64.4,54.4,30.01,NNW,338,5.7,13.8,70,0.00,BKN,,0.00,199.0,WeatherDisplay:10.37,2013-09-23 11:07:00,
2013-09-23 13:12:00,64.1,54.5,30.00,West,273,10.7,20.0,71,0.00,BKN,,0.00,309.0,WeatherDisplay:10.37,2013-09-23 11:12:00,
2013-09-23 13:17:00,64.1,55.3,30.00,NE,46,3.3,11.5,73,0.00,BKN,,0.00,179.0,WeatherDisplay:10.37,2013-09-23 11:17:00,
2013-09-23 13:22:00,64.1,54.5,30.00,NNW,345,6.1,16.1,71,0.00,BKN,,0.00,243.0,WeatherDisplay:10.37,2013-09-23 11:22:00,
2013-09-23 13:27:00,64.1,54.5,30.00,NNW,346,6.4,20.7,71,0.00,BKN,,0.00,283.0,WeatherDisplay:10.37,2013-09-23 11:27:00,
2013-09-23 13:32:00,64.3,54.7,30.00,NNW,335,2.5,12.7,71,0.00,SCT,,0.00,689.0,WeatherDisplay:10.37,2013-09-23 11:32:00,
2013-09-23 13:37:00,64.8,54.8,29.99,WSW,252,8.1,13.8,70,0.00,SCT,,0.00,248.0,WeatherDisplay:10.37,2013-09-23 11:37:00,
2013-09-23 13:42:00,65.0,55.0,29.99,WNW,290,8.6,16.0,70,0.00,SCT,,0.00,223.0,WeatherDisplay:10.37,2013-09-23 11:42:00,
2013-09-23 13:47:00,65.3,54.9,29.99,NW,321,11.4,19.0,69,0.00,SCT,,0.00,202.0,WeatherDisplay:10.37,2013-09-23 11:47:00,
2013-09-23 13:52:00,65.3,54.9,29.99,WSW,258,12.3,20.7,69,0.00,BKN,,0.00,555.0,WeatherDisplay:10.37,2013-09-23 11:52:00,
2013-09-23 13:57:00,65.6,54.8,29.99,NW,326,7.1,19.6,68,0.00,FEW,,0.00,591.0,WeatherDisplay:10.37,2013-09-23 11:57:00,
2013-09-23 14:02:00,66.2,55.3,29.99,NNW,346,8.2,16.1,68,0.00,CLR,,0.00,483.0,WeatherDisplay:10.37,2013-09-23 12:02:00,
2013-09-23 14:07:00,66.5,55.2,29.99,NNW,333,10.6,18.4,67,0.00,CLR,,0.00,577.0,WeatherDisplay:10.37,2013-09-23 12:07:00,
2013-09-23 14:12:00,66.6,55.3,29.99,WNW,290,12.9,18.4,67,0.00,CLR,,0.00,566.0,WeatherDisplay:10.37,2013-09-23 12:12:00,
2013-09-23 14:17:00,66.6,54.9,29.99,NW,313,5.8,15.0,66,0.00,CLR,,0.00,276.0,WeatherDisplay:10.37,2013-09-23 12:17:00,
2013-09-23 14:22:00,66.3,55.0,29.99,North,351,6.1,16.1,67,0.00,FEW,,0.00,294.0,WeatherDisplay:10.37,2013-09-23 12:22:00,
2013-09-23 14:27:00,66.0,54.7,29.99,WNW,283,8.2,17.3,67,0.00,SCT,,0.00,165.0,WeatherDisplay:10.37,2013-09-23 12:27:00,
2013-09-23 14:32:00,65.6,54.8,29.99,North,5,7.8,17.3,68,0.00,BKN,,0.00,134.0,WeatherDisplay:10.37,2013-09-23 12:32:00,
2013-09-23 14:37:00,65.3,54.9,29.99,NNW,337,9.2,16.1,69,0.00,BKN,,0.00,243.0,WeatherDisplay:10.37,2013-09-23 12:37:00,
2013-09-23 14:42:00,65.1,54.7,29.99,NE,44,3.1,15.0,69,0.00,BKN,,0.00,181.0,WeatherDisplay:10.37,2013-09-23 12:42:00,
2013-09-23 14:47:00,65.0,55.0,29.99,NNW,338,9.2,17.3,70,0.00,BKN,,0.00,278.0,WeatherDisplay:10.37,2013-09-23 12:47:00,
2013-09-23 14:52:00,64.8,54.8,29.99,NW,325,7.6,16.1,70,0.00,SCT,,0.00,200.0,WeatherDisplay:10.37,2013-09-23 12:52:00,
2013-09-23 14:57:00,64.8,55.2,29.99,NNW,338,6.2,11.5,71,0.00,SCT,,0.00,160.0,WeatherDisplay:10.37,2013-09-23 12:57:00,
2013-09-23 15:02:00,64.7,55.1,29.99,North,355,5.6,16.1,71,0.00,BKN,,0.00,144.0,WeatherDisplay:10.37,2013-09-23 13:02:00,
2013-09-23 15:07:00,64.6,55.0,29.99,WSW,246,7.3,15.0,71,0.00,BKN,,0.00,114.0,WeatherDisplay:10.37,2013-09-23 13:07:00,
2013-09-23 15:12:00,64.4,54.8,29.99,West,281,2.8,20.7,71,0.00,BKN,,0.00,109.0,WeatherDisplay:10.37,2013-09-23 13:12:00,
2013-09-23 15:17:00,64.0,54.8,29.99,West,259,6.0,13.8,72,0.00,BKN,,0.00,81.0,WeatherDisplay:10.37,2013-09-23 13:17:00,
2013-09-23 15:22:00,63.8,55.0,29.99,North,5,8.3,14.0,73,0.00,BKN,,0.00,72.0,WeatherDisplay:10.37,2013-09-23 13:22:00,
2013-09-23 15:27:00,63.6,54.8,29.99,East,96,7.5,15.0,73,0.00,BKN,,0.00,56.0,WeatherDisplay:10.37,2013-09-23 13:27:00,
2013-09-23 15:32:00,63.4,55.0,29.99,West,261,5.6,12.7,74,0.00,BKN,,0.00,76.0,WeatherDisplay:10.37,2013-09-23 13:32:00,
2013-09-23 15:37:00,63.2,54.8,29.98,WNW,296,4.5,11.5,74,0.00,BKN,,0.00,93.0,WeatherDisplay:10.37,2013-09-23 13:37:00,
2013-09-23 15:42:00,63.1,55.0,29.98,West,281,4.8,8.1,75,0.00,BKN,,0.00,107.0,WeatherDisplay:10.37,2013-09-23 13:42:00,
2013-09-23 15:47:00,63.0,54.9,29.98,NW,304,6.8,11.5,75,0.00,BKN,,0.00,102.0,WeatherDisplay:10.37,2013-09-23 13:47:00,
2013-09-23 15:52:00,63.0,54.9,29.99,WSW,251,8.0,17.0,75,0.00,BKN,,0.00,118.0,WeatherDisplay:10.37,2013-09-23 13:52:00,
2013-09-23 15:57:00,62.9,54.9,29.98,WNW,291,6.0,11.0,75,0.00,BKN,,0.00,90.0,WeatherDisplay:10.37,2013-09-23 13:57:00,
2013-09-23 16:02:00,62.8,54.8,29.98,West,278,5.0,15.0,75,0.00,BKN,,0.00,69.0,WeatherDisplay:10.37,2013-09-23 14:02:00,
2013-09-23 16:07:00,62.7,55.0,29.98,North,5,5.1,19.6,76,0.00,BKN,,0.00,81.0,WeatherDisplay:10.37,2013-09-23 14:07:00,
2013-09-23 16:12:00,62.6,54.9,29.98,NNW,340,3.9,15.0,76,0.00,BKN,,0.00,102.0,WeatherDisplay:10.37,2013-09-23 14:12:00,
2013-09-23 16:17:00,62.4,55.1,29.98,West,267,3.6,13.8,77,0.00,BKN,,0.00,100.0,WeatherDisplay:10.37,2013-09-23 14:17:00,
2013-09-23 16:22:00,62.4,55.1,29.98,North,5,6.0,13.0,77,0.00,BKN,,0.00,81.0,WeatherDisplay:10.37,2013-09-23 14:22:00,
2013-09-23 16:27:00,62.3,55.0,29.98,NNW,332,3.6,11.5,77,0.00,BKN,,0.00,69.0,WeatherDisplay:10.37,2013-09-23 14:27:00,
2013-09-23 16:32:00,62.2,55.3,29.97,NW,325,5.0,11.5,78,0.00,BKN,,0.00,90.0,WeatherDisplay:10.37,2013-09-23 14:32:00,
2013-09-23 16:37:00,62.1,55.2,29.97,NNW,346,4.3,9.0,78,0.00,BKN,,0.00,69.0,WeatherDisplay:10.37,2013-09-23 14:37:00,
2013-09-23 16:42:00,62.0,55.4,29.97,WSW,253,3.9,10.4,79,0.00,BKN,,0.00,58.0,WeatherDisplay:10.37,2013-09-23 14:42:00,
2013-09-23 16:47:00,61.9,55.3,29.97,NW,317,8.1,12.7,79,0.00,BKN,,0.00,63.0,WeatherDisplay:10.37,2013-09-23 14:47:00,
2013-09-23 16:52:00,61.7,55.1,29.97,WNW,288,4.2,13.0,79,0.00,BKN,,0.00,69.0,WeatherDisplay:10.37,2013-09-23 14:52:00,
2013-09-23 16:57:00,61.7,55.5,29.97,West,270,4.9,11.5,80,0.00,BKN,,0.00,98.0,WeatherDisplay:10.37,2013-09-23 14:57:00,
2013-09-23 17:02:00,61.6,55.4,29.97,NNE,12,4.3,11.5,80,0.00,BKN,,0.00,109.0,WeatherDisplay:10.37,2013-09-23 15:02:00,
2013-09-23 17:07:00,61.6,55.4,29.97,West,272,4.9,11.5,80,0.00,SCT,,0.00,97.0,WeatherDisplay:10.37,2013-09-23 15:07:00,
2013-09-23 17:12:00,61.5,55.3,29.97,West,278,1.8,11.5,80,0.00,SCT,,0.00,98.0,WeatherDisplay:10.37,2013-09-23 15:12:00,
2013-09-23 17:17:00,61.6,55.4,29.97,WNW,284,2.4,6.9,80,0.00,SCT,,0.00,63.0,WeatherDisplay:10.37,2013-09-23 15:17:00,
2013-09-23 17:22:00,61.6,55.4,29.97,NW,309,3.6,7.0,80,0.00,SCT,,0.00,49.0,WeatherDisplay:10.37,2013-09-23 15:22:00,
2013-09-23 17:27:00,61.6,55.4,29.97,NNW,336,1.9,11.5,80,0.00,BKN,,0.00,42.0,WeatherDisplay:10.37,2013-09-23 15:27:00,
2013-09-23 17:32:00,61.6,55.4,29.97,WNW,288,4.9,11.5,80,0.00,BKN,,0.00,30.0,WeatherDisplay:10.37,2013-09-23 15:32:00,
2013-09-23 17:37:00,61.5,55.3,29.97,NNW,340,2.9,7.0,80,0.00,BKN,,0.00,23.0,WeatherDisplay:10.37,2013-09-23 15:37:00,
2013-09-23 17:42:00,61.5,54.9,29.97,NW,304,2.5,9.2,79,0.00,BKN,,0.00,18.0,WeatherDisplay:10.37,2013-09-23 15:42:00,
2013-09-23 17:47:00,61.5,54.9,29.96,NW,307,0.6,3.5,79,0.00,BKN,,0.00,14.0,WeatherDisplay:10.37,2013-09-23 15:47:00,
2013-09-23 17:52:00,61.4,54.8,29.96,NW,307,1.1,8.1,79,0.00,BKN,,0.00,16.0,WeatherDisplay:10.37,2013-09-23 15:52:00,
2013-09-23 17:57:00,61.4,54.8,29.96,NW,319,5.8,12.0,79,0.00,BKN,,0.00,9.0,WeatherDisplay:10.37,2013-09-23 15:57:00,
2013-09-23 18:02:00,61.3,54.7,29.97,West,278,5.7,9.0,79,0.00,BKN,,0.00,9.0,WeatherDisplay:10.37,2013-09-23 16:02:00,
2013-09-23 18:07:00,61.3,54.7,29.96,WNW,290,2.7,7.0,79,0.00,BKN,,0.00,7.0,WeatherDisplay:10.37,2013-09-23 16:07:00,
2013-09-23 18:12:00,61.3,54.7,29.96,WNW,292,4.9,10.4,79,0.00,BKN,,0.00,0.0,WeatherDisplay:10.37,2013-09-23 16:12:00,
2013-09-23 18:17:00,61.3,54.7,29.96,WNW,290,3.8,6.9,79,0.00,BKN,,0.00,0.0,WeatherDisplay:10.37,2013-09-23 16:17:00,
2013-09-23 18:22:00,61.3,54.7,29.96,WNW,290,1.5,6.9,79,0.00,BKN,,0.00,0.0,WeatherDisplay:10.37,2013-09-23 16:22:00,
2013-09-23 18:27:00,61.2,54.6,29.96,WNW,290,5.6,11.5,79,0.00,BKN,,0.00,0.0,WeatherDisplay:10.37,2013-09-23 16:27:00,
2013-09-23 18:32:00,61.2,54.6,29.96,West,269,3.9,8.1,79,0.00,BKN,,0.00,0.0,WeatherDisplay:10.37,2013-09-23 16:32:00,
2013-09-23 18:37:00,61.2,54.6,29.96,WNW,301,3.6,9.2,79,0.00,BKN,,0.00,0.0,WeatherDisplay:10.37,2013-09-23 16:37:00,
2013-09-23 18:42:00,61.1,54.5,29.96,WNW,282,2.5,8.1,79,0.00,BKN,,0.00,0.0,WeatherDisplay:10.37,2013-09-23 16:42:00,
2013-09-23 18:47:00,61.0,54.4,29.95,SW,233,2.8,6.9,79,0.00,BKN,,0.00,0.0,WeatherDisplay:10.37,2013-09-23 16:47:00,
2013-09-23 18:52:00,61.0,54.8,29.95,WSW,252,0.8,5.8,80,0.00,BKN,,0.00,0.0,WeatherDisplay:10.37,2013-09-23 16:52:00,
2013-09-23 18:57:00,60.9,54.7,29.95,SW,223,0.7,5.8,80,0.00,BKN,,0.00,0.0,WeatherDisplay:10.37,2013-09-23 16:57:00,
2013-09-23 19:02:00,60.8,54.6,29.95,West,275,1.4,5.0,80,0.00,BKN,,0.00,0.0,WeatherDisplay:10.37,2013-09-23 17:02:00,
2013-09-23 19:07:00,60.7,54.5,29.95,West,267,2.5,7.0,80,0.00,BKN,,0.00,0.0,WeatherDisplay:10.37,2013-09-23 17:07:00,
2013-09-23 19:12:00,60.6,54.4,29.95,West,259,2.4,5.8,80,0.00,BKN,,0.00,0.0,WeatherDisplay:10.37,2013-09-23 17:12:00,
2013-09-23 19:17:00,60.5,54.6,29.94,WSW,245,0.6,5.8,81,0.00,BKN,,0.00,0.0,WeatherDisplay:10.37,2013-09-23 17:17:00,
2013-09-23 19:22:00,60.5,54.6,29.94,WSW,252,1.5,5.8,81,0.00,BKN,,0.00,0.0,WeatherDisplay:10.37,2013-09-23 17:22:00,
2013-09-23 19:27:00,60.4,54.5,29.94,West,267,5.2,9.0,81,0.00,BKN,,0.00,0.0,WeatherDisplay:10.37,2013-09-23 17:27:00,
2013-09-23 19:32:00,60.4,54.5,29.94,WNW,282,3.8,9.2,81,0.00,BKN,,0.00,0.0,WeatherDisplay:10.37,2013-09-23 17:32:00,
2013-09-23 19:37:00,60.5,54.3,29.94,WNW,282,3.1,11.5,80,0.00,BKN,,0.00,0.0,WeatherDisplay:10.37,2013-09-23 17:37:00,
2013-09-23 19:42:00,60.6,54.4,29.94,NNW,327,2.6,11.5,80,0.00,BKN,,0.00,0.0,WeatherDisplay:10.37,2013-09-23 17:42:00,
2013-09-23 19:47:00,60.8,54.2,29.94,WNW,290,5.3,11.5,79,0.00,BKN,,0.00,0.0,WeatherDisplay:10.37,2013-09-23 17:47:00,
2013-09-23 19:52:00,61.0,54.1,29.94,WSW,251,3.9,12.7,78,0.00,BKN,,0.00,0.0,WeatherDisplay:10.37,2013-09-23 17:52:00,
2013-09-23 19:57:00,61.2,54.3,29.94,North,5,4.4,12.0,78,0.00,BKN,,0.00,0.0,WeatherDisplay:10.37,2013-09-23 17:57:00,
2013-09-23 20:02:00,61.3,54.0,29.94,West,266,2.3,9.2,77,0.00,BKN,,0.00,0.0,WeatherDisplay:10.37,2013-09-23 18:02:00,
2013-09-23 20:07:00,61.4,54.1,29.94,WNW,302,9.7,17.0,77,0.00,BKN,,0.00,0.0,WeatherDisplay:10.37,2013-09-23 18:07:00,
2013-09-23 20:12:00,61.6,54.0,29.94,WNW,295,4.1,10.4,76,0.00,BKN,,0.00,0.0,WeatherDisplay:10.37,2013-09-23 18:12:00,
2013-09-23 20:17:00,61.7,54.1,29.94,WNW,290,3.7,10.0,76,0.00,BKN,,0.00,0.0,WeatherDisplay:10.37,2013-09-23 18:17:00,
2013-09-23 20:22:00,61.7,53.7,29.94,WSW,240,4.2,15.0,75,0.00,BKN,,0.00,0.0,WeatherDisplay:10.37,2013-09-23 18:22:00,
2013-09-23 20:27:00,61.7,53.7,29.94,WSW,257,5.0,11.5,75,0.00,BKN,,0.00,0.0,WeatherDisplay:10.37,2013-09-23 18:27:00,
2013-09-23 20:32:00,61.6,53.6,29.94,NW,323,4.1,15.0,75,0.00,BKN,,0.00,0.0,WeatherDisplay:10.37,2013-09-23 18:32:00,
2013-09-23 20:37:00,61.6,53.6,29.94,WNW,294,5.0,14.0,75,0.00,BKN,,0.00,0.0,WeatherDisplay:10.37,2013-09-23 18:37:00,
2013-09-23 20:42:00,61.5,53.5,29.94,NW,304,4.2,7.0,75,0.00,BKN,,0.00,0.0,WeatherDisplay:10.37,2013-09-23 18:42:00,
2013-09-23 20:47:00,61.4,53.4,29.94,West,260,6.2,13.0,75,0.00,BKN,,0.00,0.0,WeatherDisplay:10.37,2013-09-23 18:47:00,
2013-09-23 20:52:00,61.3,53.3,29.94,West,279,6.7,12.0,75,0.00,BKN,,0.00,0.0,WeatherDisplay:10.37,2013-09-23 18:52:00,
2013-09-23 20:57:00,61.3,53.3,29.94,West,280,4.6,12.7,75,0.00,BKN,,0.00,0.0,WeatherDisplay:10.37,2013-09-23 18:57:00,
2013-09-23 21:02:00,61.3,53.3,29.94,NNW,333,5.0,11.5,75,0.00,BKN,,0.00,0.0,WeatherDisplay:10.37,2013-09-23 19:02:00,
2013-09-23 21:07:00,61.4,53.4,29.94,West,277,7.1,12.7,75,0.00,BKN,,0.00,0.0,WeatherDisplay:10.37,2013-09-23 19:07:00,
2013-09-23 21:12:00,61.3,53.3,29.93,NW,315,8.4,13.8,75,0.00,BKN,,0.00,0.0,WeatherDisplay:10.37,2013-09-23 19:12:00,
2013-09-23 21:17:00,61.3,53.3,29.93,WNW,290,6.2,12.0,75,0.00,BKN,,0.00,0.0,WeatherDisplay:10.37,2013-09-23 19:17:00,
2013-09-23 21:22:00,61.3,53.3,29.93,WNW,298,8.2,19.6,75,0.00,BKN,,0.00,0.0,WeatherDisplay:10.37,2013-09-23 19:22:00,
2013-09-23 21:27:00,61.3,53.3,29.93,NNW,331,5.6,15.0,75,0.00,BKN,,0.00,0.0,WeatherDisplay:10.37,2013-09-23 19:27:00,
2013-09-23 21:32:00,61.3,53.3,29.94,West,281,3.3,9.2,75,0.00,BKN,,0.00,0.0,WeatherDisplay:10.37,2013-09-23 19:32:00,
2013-09-23 21:37:00,61.4,53.4,29.94,NW,314,6.0,15.0,75,0.00,BKN,,0.00,0.0,WeatherDisplay:10.37,2013-09-23 19:37:00,
2013-09-23 21:42:00,61.5,53.5,29.93,North,355,4.0,9.2,75,0.00,BKN,,0.00,0.0,WeatherDisplay:10.37,2013-09-23 19:42:00,
2013-09-23 21:47:00,61.6,53.6,29.94,West,268,5.3,11.5,75,0.00,BKN,,0.00,0.0,WeatherDisplay:10.37,2013-09-23 19:47:00,
2013-09-23 21:52:00,61.6,53.6,29.93,NNE,14,4.4,13.8,75,0.00,BKN,,0.00,0.0,WeatherDisplay:10.37,2013-09-23 19:52:00,
2013-09-23 21:57:00,61.7,53.3,29.93,NW,320,6.5,11.5,74,0.00,BKN,,0.00,0.0,WeatherDisplay:10.37,2013-09-23 19:57:00,
2013-09-23 22:02:00,61.8,53.4,29.93,NW,311,6.2,13.8,74,0.00,BKN,,0.00,0.0,WeatherDisplay:10.37,2013-09-23 20:02:00,
2013-09-23 22:07:00,61.9,53.5,29.93,NW,305,8.2,19.0,74,0.00,BKN,,0.00,0.0,WeatherDisplay:10.37,2013-09-23 20:07:00,
2013-09-23 22:12:00,61.9,53.5,29.93,WNW,283,5.6,13.8,74,0.00,BKN,,0.00,0.0,WeatherDisplay:10.37,2013-09-23 20:12:00,
2013-09-23 22:17:00,61.9,53.5,29.93,NW,313,10.4,19.6,74,0.00,BKN,,0.00,0.0,WeatherDisplay:10.37,2013-09-23 20:17:00,
2013-09-23 22:22:00,61.9,53.5,29.92,NNW,333,5.0,10.4,74,0.00,BKN,,0.00,0.0,WeatherDisplay:10.37,2013-09-23 20:22:00,
2013-09-23 22:27:00,61.8,53.4,29.92,West,272,7.7,15.0,74,0.00,BKN,,0.00,0.0,WeatherDisplay:10.37,2013-09-23 20:27:00,
2013-09-23 22:32:00,61.8,53.4,29.92,North,5,6.4,12.0,74,0.00,BKN,,0.00,0.0,WeatherDisplay:10.37,2013-09-23 20:32:00,
2013-09-23 22:37:00,61.7,53.3,29.92,NW,310,8.6,16.0,74,0.00,BKN,,0.00,0.0,WeatherDisplay:10.37,2013-09-23 20:37:00,
2013-09-23 22:42:00,61.7,53.3,29.92,North,350,6.8,19.6,74,0.00,BKN,,0.00,0.0,WeatherDisplay:10.37,2013-09-23 20:42:00,
2013-09-23 22:47:00,61.7,53.3,29.92,West,262,8.1,25.0,74,0.00,BKN,,0.00,0.0,WeatherDisplay:10.37,2013-09-23 20:47:00,
2013-09-23 22:52:00,61.7,53.3,29.92,North,350,7.0,15.0,74,0.00,BKN,,0.00,0.0,WeatherDisplay:10.37,2013-09-23 20:52:00,
2013-09-23 22:57:00,61.6,53.2,29.92,West,261,7.6,18.4,74,0.00,BKN,,0.00,0.0,WeatherDisplay:10.37,2013-09-23 20:57:00,
2013-09-23 23:02:00,61.6,53.2,29.92,NNW,341,9.8,16.1,74,0.00,BKN,,0.00,0.0,WeatherDisplay:10.37,2013-09-23 21:02:00,
2013-09-23 23:07:00,61.5,53.1,29.92,North,360,6.6,16.1,74,0.00,BKN,,0.00,0.0,WeatherDisplay:10.37,2013-09-23 21:07:00,
2013-09-23 23:12:00,61.4,53.0,29.92,ENE,65,2.4,13.8,74,0.00,BKN,,0.00,0.0,WeatherDisplay:10.37,2013-09-23 21:12:00,
2013-09-23 23:18:00,61.3,53.3,29.92,NW,324,5.0,12.0,75,0.00,BKN,,0.00,0.0,WeatherDisplay:10.37,2013-09-23 21:18:00,
2013-09-23 23:23:00,61.3,53.3,29.92,NNW,339,6.7,15.0,75,0.00,BKN,,0.00,0.0,WeatherDisplay:10.37,2013-09-23 21:23:00,
2013-09-23 23:28:00,61.3,53.3,29.92,NW,310,6.7,15.0,75,0.00,BKN,,0.00,0.0,WeatherDisplay:10.37,2013-09-23 21:28:00,
2013-09-23 23:33:00,61.3,53.3,29.92,NNW,328,6.2,14.0,75,0.00,BKN,,0.00,0.0,WeatherDisplay:10.37,2013-09-23 21:33:00,
2013-09-23 23:38:00,61.3,53.3,29.92,NW,315,4.7,12.0,75,0.00,BKN,,0.00,0.0,WeatherDisplay:10.37,2013-09-23 21:38:00,
2013-09-23 23:43:00,61.3,53.3,29.92,North,5,2.8,11.5,75,0.00,BKN,,0.00,0.0,WeatherDisplay:10.37,2013-09-23 21:43:00,
2013-09-23 23:48:00,61.3,53.3,29.92,NNW,346,6.7,18.4,75,0.00,BKN,,0.00,0.0,WeatherDisplay:10.37,2013-09-23 21:48:00,
2013-09-23 23:53:00,61.3,52.9,29.92,NW,317,5.1,18.4,74,0.00,BKN,,0.00,0.0,WeatherDisplay:10.37,2013-09-23 21:53:00,
2013-09-23 23:58:00,61.3,52.9,29.92,NW,323,4.7,11.5,74,0.00,BKN,,0.00,0.0,WeatherDisplay:10.37,2013-09-23 21:58:00,